createdAt,value
2022-09-13T00:01:24.250Z,16.78
2022-09-13T00:03:53.266Z,16.86
2022-09-13T00:06:24.343Z,16.53
2022-09-13T00:08:54.539Z,16.66
2022-09-13T00:11:29.131Z,16.52
2022-09-13T00:13:58.835Z,16.63
2022-09-13T00:16:29.607Z,16.62
2022-09-13T00:19:01.337Z,16.60
2022-09-13T00:21:30.359Z,16.55
2022-09-13T00:23:59.415Z,16.38
2022-09-13T00:26:30.074Z,16.38
2022-09-13T00:29:00.684Z,16.37
2022-09-13T00:31:30.098Z,16.37
2022-09-13T00:34:01.103Z,16.40
2022-09-13T00:36:30.293Z,16.34
2022-09-13T00:39:01.287Z,16.33
2022-09-13T00:41:30.353Z,16.16
2022-09-13T00:44:02.247Z,16.38
2022-09-13T00:46:49.852Z,16.38
2022-09-13T00:49:24.743Z,16.56
2022-09-13T00:51:59.292Z,16.56
2022-09-13T00:54:31.358Z,16.59
2022-09-13T00:57:03.351Z,16.58
2022-09-13T00:59:38.007Z,16.42
2022-09-13T01:02:07.077Z,16.50
2022-09-13T01:04:37.926Z,16.84
2022-09-13T01:07:09.810Z,16.79
2022-09-13T01:09:42.040Z,16.79
2022-09-13T01:12:32.296Z,17.01
2022-09-13T01:15:04.489Z,17.04
2022-09-13T01:17:35.495Z,16.93
2022-09-13T01:20:06.119Z,16.96
2022-09-13T01:22:53.245Z,16.96
2022-09-13T01:25:34.100Z,16.74
2022-09-13T01:28:08.586Z,16.90
2022-09-13T01:30:43.861Z,16.90
2022-09-13T01:33:30.808Z,17.06
2022-09-13T01:36:22.446Z,17.30
2022-09-13T01:39:06.337Z,17.37
2022-09-13T01:41:56.636Z,17.27
2022-09-13T01:44:45.250Z,17.24
2022-09-13T01:47:25.990Z,17.24
2022-09-13T01:50:00.628Z,17.43
2022-09-13T01:52:41.954Z,17.45
2022-09-13T01:55:13.850Z,17.45
2022-09-13T01:57:52.203Z,17.54
2022-09-13T02:00:21.722Z,17.54
2022-09-13T02:03:11.042Z,17.52
2022-09-13T02:05:42.893Z,17.80
2022-09-13T02:08:36.094Z,17.80
2022-09-13T02:11:21.508Z,17.93
2022-09-13T02:14:13.193Z,17.84
2022-09-13T02:16:45.909Z,17.80
2022-09-13T02:19:34.185Z,17.80
2022-09-13T02:22:06.027Z,17.79
2022-09-13T02:24:41.258Z,17.71
2022-09-13T02:27:13.187Z,17.86
2022-09-13T02:29:45.528Z,17.86
2022-09-13T02:32:20.327Z,17.70
2022-09-13T02:34:55.166Z,17.42
2022-09-13T02:37:26.783Z,17.39
2022-09-13T02:39:58.743Z,17.67
2022-09-13T02:42:42.571Z,17.57
2022-09-13T02:45:14.037Z,17.68
2022-09-13T02:47:49.109Z,17.80
2022-09-13T02:50:46.566Z,17.63
2022-09-13T02:53:21.222Z,17.72
2022-09-13T02:55:56.006Z,17.80
2022-09-13T02:58:35.032Z,17.80
2022-09-13T03:01:04.219Z,17.57
2022-09-13T03:03:33.311Z,17.96
2022-09-13T03:06:02.793Z,17.96
2022-09-13T03:08:32.628Z,17.95
2022-09-13T03:11:13.684Z,17.94
2022-09-13T03:13:56.872Z,17.79
2022-09-13T03:16:33.066Z,17.79
2022-09-13T03:19:04.976Z,17.87
2022-09-13T03:21:46.114Z,17.87
2022-09-13T03:24:24.795Z,17.94
2022-09-13T03:26:59.218Z,17.62
2022-09-13T03:29:50.598Z,17.82
2022-09-13T03:32:31.514Z,17.64
2022-09-13T03:35:12.142Z,17.73
2022-09-13T03:37:55.955Z,17.94
2022-09-13T03:40:37.027Z,17.90
2022-09-13T03:43:12.197Z,17.79
2022-09-13T03:45:46.944Z,17.63
2022-09-13T03:48:17.574Z,17.85
2022-09-13T03:50:50.063Z,17.75
2022-09-13T03:53:21.934Z,17.65
2022-09-13T03:55:50.964Z,17.64
2022-09-13T03:58:21.807Z,17.60
2022-09-13T04:00:50.858Z,17.60
2022-09-13T04:03:20.116Z,17.67
2022-09-13T04:05:49.152Z,17.82
2022-09-13T04:08:18.366Z,17.90
2022-09-13T04:10:48.988Z,17.72
2022-09-13T04:13:18.302Z,17.79
2022-09-13T04:15:47.297Z,17.75
2022-09-13T04:18:16.273Z,17.75
2022-09-13T04:20:45.573Z,17.68
2022-09-13T04:23:14.617Z,17.38
2022-09-13T04:25:43.605Z,17.56
2022-09-13T04:28:12.578Z,17.61
2022-09-13T04:30:42.984Z,17.55
2022-09-13T04:33:11.967Z,17.55
2022-09-13T04:35:41.255Z,17.41
2022-09-13T04:38:10.454Z,17.43
2022-09-13T04:40:39.686Z,17.26
2022-09-13T04:43:08.650Z,17.26
2022-09-13T04:45:39.473Z,17.77
2022-09-13T04:48:09.069Z,17.64
2022-09-13T04:50:38.183Z,17.69
2022-09-13T04:53:07.212Z,17.77
2022-09-13T04:55:37.057Z,17.79
2022-09-13T04:58:06.075Z,17.98
2022-09-13T05:00:35.808Z,17.76
2022-09-13T05:03:04.833Z,17.76
2022-09-13T05:05:34.080Z,17.63
2022-09-13T05:08:03.738Z,17.81
2022-09-13T05:10:32.832Z,17.56
2022-09-13T05:13:01.818Z,17.82
2022-09-13T05:15:30.818Z,17.98
2022-09-13T05:17:59.822Z,17.73
2022-09-13T05:20:28.860Z,17.70
2022-09-13T05:22:57.860Z,17.59
2022-09-13T05:25:26.882Z,17.62
2022-09-13T05:27:55.829Z,17.65
2022-09-13T05:30:24.853Z,17.73
2022-09-13T05:32:53.950Z,17.83
2022-09-13T05:35:22.882Z,17.78
2022-09-13T05:37:51.845Z,17.78
2022-09-13T05:40:20.810Z,17.88
2022-09-13T05:42:49.852Z,17.88
2022-09-13T05:45:18.909Z,17.82
2022-09-13T05:47:50.756Z,17.76
2022-09-13T05:50:45.094Z,17.75
2022-09-13T05:52:55.828Z,17.70
2022-09-13T05:55:25.135Z,17.98
2022-09-13T05:57:54.105Z,17.71
2022-09-13T06:00:23.055Z,17.80
2022-09-13T06:02:52.066Z,17.71
2022-09-13T06:05:20.993Z,17.71
2022-09-13T06:07:50.151Z,17.56
2022-09-13T06:10:20.477Z,17.56
2022-09-13T06:12:51.104Z,17.69
2022-09-13T06:15:20.153Z,17.64
2022-09-13T06:17:49.191Z,17.64
2022-09-13T06:20:18.381Z,17.64
2022-09-13T06:22:49.471Z,18.10
2022-09-13T06:25:18.595Z,18.10
2022-09-13T06:27:50.356Z,17.74
2022-09-13T06:30:19.866Z,18.09
2022-09-13T06:32:48.965Z,17.84
2022-09-13T06:35:18.040Z,18.11
2022-09-13T06:37:47.032Z,18.49
2022-09-13T06:40:17.656Z,18.50
2022-09-13T06:42:47.785Z,18.50
2022-09-13T06:45:17.090Z,18.69
2022-09-13T06:47:46.111Z,19.16
2022-09-13T06:50:15.056Z,19.16
2022-09-13T06:52:44.031Z,19.16
2022-09-13T06:55:13.099Z,19.45
2022-09-13T06:57:42.301Z,21.30
2022-09-13T07:00:12.628Z,21.30
2022-09-13T07:02:41.650Z,22.56
2022-09-13T07:05:11.341Z,22.45
2022-09-13T07:07:41.049Z,23.17
2022-09-13T07:10:10.913Z,23.34
2022-09-13T07:12:43.857Z,22.58
2022-09-13T07:15:13.156Z,21.38
2022-09-13T07:17:42.271Z,21.38
2022-09-13T07:20:11.736Z,21.34
2022-09-13T07:22:42.726Z,22.52
2022-09-13T07:25:12.846Z,22.68
2022-09-13T07:27:42.247Z,25.04
2022-09-13T07:30:11.846Z,25.76
2022-09-13T07:32:42.047Z,24.61
2022-09-13T07:35:12.009Z,23.71
2022-09-13T07:37:42.694Z,23.69
2022-09-13T07:40:12.665Z,23.69
2022-09-13T07:42:41.695Z,22.10
2022-09-13T07:45:13.059Z,22.10
2022-09-13T07:47:42.925Z,21.22
2022-09-13T07:50:12.141Z,21.31
2022-09-13T07:52:41.470Z,21.57
2022-09-13T07:55:11.083Z,21.98
2022-09-13T07:57:40.074Z,21.94
2022-09-13T08:00:11.238Z,21.74
2022-09-13T08:02:40.395Z,21.56
2022-09-13T08:05:09.708Z,21.42
2022-09-13T08:07:38.693Z,21.01
2022-09-13T08:10:08.310Z,21.46
2022-09-13T08:12:37.294Z,22.66
2022-09-13T08:15:06.919Z,23.38
2022-09-13T08:17:35.922Z,22.93
2022-09-13T08:20:06.296Z,22.39
2022-09-13T08:22:35.518Z,22.39
2022-09-13T08:25:04.706Z,23.84
2022-09-13T08:27:33.745Z,26.76
2022-09-13T08:30:02.774Z,27.22
2022-09-13T08:32:31.833Z,27.22
2022-09-13T08:35:00.788Z,27.10
2022-09-13T08:37:29.805Z,27.73
2022-09-13T08:39:58.840Z,27.12
2022-09-13T08:42:42.766Z,27.85
2022-09-13T08:45:12.137Z,28.49
2022-09-13T08:47:48.438Z,28.01
2022-09-13T08:50:20.367Z,28.01
2022-09-13T08:53:09.157Z,28.42
2022-09-13T08:55:41.324Z,28.42
2022-09-13T08:58:30.228Z,27.61
2022-09-13T09:01:11.219Z,27.22
2022-09-13T09:03:49.442Z,27.22
2022-09-13T09:06:19.737Z,25.42
2022-09-13T09:08:54.143Z,26.00
2022-09-13T09:11:31.767Z,26.00
2022-09-13T09:14:06.576Z,26.88
2022-09-13T09:16:38.542Z,26.35
2022-09-13T09:19:10.389Z,26.34
2022-09-13T09:21:39.768Z,26.34
2022-09-13T09:24:11.518Z,25.69
2022-09-13T09:26:40.518Z,25.69
2022-09-13T09:29:25.767Z,25.11
2022-09-13T09:32:19.665Z,24.22
2022-09-13T09:35:14.455Z,26.08
2022-09-13T09:37:45.853Z,24.75
2022-09-13T09:40:17.660Z,24.75
2022-09-13T09:42:49.813Z,26.43
2022-09-13T09:45:30.686Z,25.48
2022-09-13T09:48:02.565Z,25.27
2022-09-13T09:50:34.423Z,25.18
2022-09-13T09:53:15.814Z,24.85
2022-09-13T09:55:53.597Z,24.85
2022-09-13T09:58:43.817Z,23.55
2022-09-13T10:01:18.466Z,23.55
2022-09-13T10:03:53.055Z,23.54
2022-09-13T10:06:25.748Z,23.58
2022-09-13T10:09:09.520Z,23.58
2022-09-13T10:11:59.432Z,23.40
2022-09-13T10:14:40.338Z,23.12
2022-09-13T10:17:18.556Z,23.12
2022-09-13T10:20:02.363Z,23.05
2022-09-13T10:22:33.730Z,22.56
2022-09-13T10:25:27.307Z,22.56
2022-09-13T10:27:59.282Z,22.52
2022-09-13T10:30:31.178Z,22.66
2022-09-13T10:33:01.056Z,23.26
2022-09-13T10:35:31.272Z,22.88
2022-09-13T10:38:00.345Z,23.07
2022-09-13T10:40:33.892Z,24.06
2022-09-13T10:43:07.320Z,24.06
2022-09-13T10:45:37.132Z,23.28
2022-09-13T10:48:18.028Z,23.28
2022-09-13T10:51:11.134Z,23.46
2022-09-13T10:54:00.812Z,23.17
2022-09-13T10:56:29.814Z,22.74
2022-09-13T10:59:18.536Z,22.54
2022-09-13T11:02:23.908Z,22.79
2022-09-13T11:05:25.589Z,22.09
2022-09-13T11:08:13.069Z,22.09
2022-09-13T11:10:50.868Z,22.35
2022-09-13T11:13:37.427Z,22.57
2022-09-13T11:16:30.403Z,22.57
2022-09-13T11:19:37.153Z,22.91
2022-09-13T11:22:23.868Z,22.91
2022-09-13T11:25:04.843Z,22.55
2022-09-13T11:27:36.876Z,22.55
2022-09-13T11:30:20.636Z,22.27
2022-09-13T11:33:09.343Z,21.62
2022-09-13T11:35:53.317Z,21.51
2022-09-13T11:38:59.006Z,21.40
2022-09-13T11:41:55.474Z,21.40
2022-09-13T11:44:36.210Z,21.30
2022-09-13T11:47:27.473Z,21.45
2022-09-13T11:50:03.928Z,21.39
2022-09-13T11:52:48.496Z,21.21
2022-09-13T11:55:31.839Z,21.08
2022-09-13T11:58:06.706Z,20.61
2022-09-13T12:00:40.239Z,21.09
2022-09-13T12:03:15.342Z,20.95
2022-09-13T12:05:53.557Z,20.94
2022-09-13T12:08:43.435Z,20.94
2022-09-13T12:11:19.780Z,21.08
2022-09-13T12:13:52.327Z,21.82
2022-09-13T12:16:34.086Z,21.82
2022-09-13T12:19:03.504Z,21.70
2022-09-13T12:21:35.505Z,21.70
2022-09-13T12:24:19.866Z,21.54
2022-09-13T12:27:03.920Z,21.42
2022-09-13T12:29:50.820Z,21.30
2022-09-13T12:32:21.019Z,21.10
2022-09-13T12:34:59.081Z,21.10
2022-09-13T12:37:49.446Z,21.37
2022-09-13T12:40:23.984Z,21.37
2022-09-13T12:43:15.669Z,21.37
2022-09-13T12:45:58.270Z,21.39
2022-09-13T12:49:05.283Z,21.55
2022-09-13T12:51:58.727Z,21.77
2022-09-13T12:54:39.529Z,21.77
2022-09-13T12:57:40.148Z,21.44
2022-09-13T13:00:15.025Z,21.44
2022-09-13T13:02:54.717Z,21.75
2022-09-13T13:05:38.702Z,21.45
2022-09-13T13:08:10.734Z,21.45
2022-09-13T13:10:40.584Z,21.25
2022-09-13T13:13:15.290Z,21.36
2022-09-13T13:15:50.043Z,20.90
2022-09-13T13:18:27.460Z,21.08
2022-09-13T13:20:59.317Z,21.08
2022-09-13T13:23:36.870Z,21.24
2022-09-13T13:26:24.072Z,21.42
2022-09-13T13:29:15.913Z,21.42
2022-09-13T13:31:47.985Z,21.36
2022-09-13T13:34:19.904Z,21.36
2022-09-13T13:36:51.662Z,21.66
2022-09-13T13:39:29.772Z,21.42
2022-09-13T13:42:17.873Z,21.07
2022-09-13T13:44:49.917Z,21.20
2022-09-13T13:47:21.879Z,21.09
2022-09-13T13:49:56.499Z,20.86
2022-09-13T13:52:30.029Z,20.86
2022-09-13T13:55:31.992Z,20.51
2022-09-13T13:58:06.892Z,20.58
2022-09-13T14:00:37.897Z,20.61
2022-09-13T14:03:26.420Z,20.50
2022-09-13T14:06:01.090Z,20.52
2022-09-13T14:08:48.392Z,20.51
2022-09-13T14:11:40.049Z,20.28
2022-09-13T14:14:39.027Z,20.23
2022-09-13T14:17:32.084Z,20.39
2022-09-13T14:20:13.260Z,20.43
2022-09-13T14:22:42.253Z,20.46
2022-09-13T14:25:26.765Z,20.66
2022-09-13T14:27:58.617Z,20.73
2022-09-13T14:30:39.000Z,20.70
2022-09-13T14:33:09.730Z,20.57
2022-09-13T14:35:41.063Z,20.97
2022-09-13T14:38:25.524Z,20.89
2022-09-13T14:40:57.109Z,20.93
2022-09-13T14:43:28.884Z,20.66
2022-09-13T14:46:03.919Z,20.88
2022-09-13T14:48:35.751Z,20.75
2022-09-13T14:51:07.640Z,20.48
2022-09-13T14:53:37.752Z,20.35
2022-09-13T14:56:21.641Z,20.10
2022-09-13T14:58:53.703Z,19.58
2022-09-13T15:01:25.583Z,19.58
2022-09-13T15:03:59.317Z,19.85
2022-09-13T15:06:34.372Z,19.46
2022-09-13T15:09:14.954Z,19.47
2022-09-13T15:11:59.657Z,19.47
2022-09-13T15:14:33.395Z,19.50
2022-09-13T15:17:14.392Z,19.28
2022-09-13T15:19:46.333Z,19.11
2022-09-13T15:22:18.364Z,19.11
2022-09-13T15:24:50.867Z,19.10
2022-09-13T15:27:34.978Z,18.91
2022-09-13T15:30:06.701Z,19.08
2022-09-13T15:32:39.250Z,18.93
2022-09-13T15:35:32.236Z,18.85
2022-09-13T15:38:05.341Z,18.85
2022-09-13T15:40:37.328Z,18.81
2022-09-13T15:43:07.466Z,18.74
2022-09-13T15:45:36.479Z,18.74
2022-09-13T15:48:07.485Z,18.69
2022-09-13T15:50:38.390Z,18.84
2022-09-13T15:53:10.212Z,18.84
2022-09-13T15:55:40.992Z,18.53
2022-09-13T15:58:11.743Z,18.24
2022-09-13T16:00:40.865Z,18.24
2022-09-13T16:03:10.830Z,18.39
2022-09-13T16:05:39.817Z,18.39
2022-09-13T16:08:10.604Z,18.33
2022-09-13T16:10:39.753Z,18.33
2022-09-13T16:13:09.109Z,18.18
2022-09-13T16:15:38.069Z,18.15
2022-09-13T16:18:07.108Z,18.12
2022-09-13T16:20:36.172Z,18.32
2022-09-13T16:23:05.171Z,18.01
2022-09-13T16:25:35.201Z,17.91
2022-09-13T16:28:05.050Z,17.95
2022-09-13T16:30:34.314Z,17.95
2022-09-13T16:33:03.903Z,17.95
2022-09-13T16:35:33.906Z,18.07
2022-09-13T16:38:02.882Z,17.81
2022-09-13T16:40:31.867Z,17.68
2022-09-13T16:43:00.885Z,17.57
2022-09-13T16:45:29.869Z,17.57
2022-09-13T16:47:58.841Z,17.72
2022-09-13T16:50:30.112Z,17.93
2022-09-13T16:52:58.881Z,17.93
2022-09-13T16:55:28.108Z,17.81
2022-09-13T16:57:57.137Z,17.81
2022-09-13T17:00:27.905Z,17.79
2022-09-13T17:02:58.554Z,17.72
2022-09-13T17:05:28.884Z,17.86
2022-09-13T17:07:57.841Z,17.84
2022-09-13T17:10:27.195Z,17.84
2022-09-13T17:12:56.225Z,17.83
2022-09-13T17:15:25.344Z,17.88
2022-09-13T17:17:54.265Z,17.88
2022-09-13T17:20:23.291Z,17.83
2022-09-13T17:22:52.312Z,17.75
2022-09-13T17:25:21.324Z,17.91
2022-09-13T17:27:50.610Z,17.78
2022-09-13T17:30:19.951Z,17.78
2022-09-13T17:32:49.107Z,17.89
2022-09-13T17:35:18.244Z,17.75
2022-09-13T17:37:47.318Z,17.78
2022-09-13T17:40:16.419Z,17.74
2022-09-13T17:42:47.025Z,17.80
2022-09-13T17:45:16.089Z,17.83
2022-09-13T17:47:45.205Z,17.83
2022-09-13T17:50:14.470Z,17.80
2022-09-13T17:52:43.913Z,17.72
2022-09-13T17:55:13.223Z,17.77
2022-09-13T17:57:42.266Z,17.77
2022-09-13T18:00:15.426Z,17.52
2022-09-13T18:02:46.259Z,17.61
2022-09-13T18:05:15.247Z,17.70
2022-09-13T18:07:44.336Z,17.75
2022-09-13T18:10:38.782Z,17.87
2022-09-13T18:12:44.034Z,17.81
2022-09-13T18:15:13.477Z,17.84
2022-09-13T18:17:42.446Z,17.72
2022-09-13T18:20:11.845Z,17.81
2022-09-13T18:22:40.808Z,17.81
2022-09-13T18:25:09.917Z,17.71
2022-09-13T18:27:38.977Z,17.74
2022-09-13T18:30:08.541Z,17.51
2022-09-13T18:32:37.614Z,17.52
2022-09-13T18:35:07.462Z,17.41
2022-09-13T18:37:36.404Z,17.45
2022-09-13T18:40:07.763Z,17.45
2022-09-13T18:42:36.694Z,17.38
2022-09-13T18:45:07.117Z,17.51
2022-09-13T18:47:36.117Z,17.33
2022-09-13T18:50:08.161Z,17.20
2022-09-13T18:52:36.488Z,17.21
2022-09-13T18:55:05.753Z,17.21
2022-09-13T18:57:34.725Z,17.29
2022-09-13T19:00:04.508Z,17.29
2022-09-13T19:02:33.873Z,17.09
2022-09-13T19:05:06.878Z,17.20
2022-09-13T19:07:33.725Z,17.43
2022-09-13T19:10:02.699Z,17.43
2022-09-13T19:12:31.864Z,17.14
2022-09-13T19:15:00.865Z,17.35
2022-09-13T19:17:29.943Z,17.20
2022-09-13T19:19:59.224Z,17.03
2022-09-13T19:22:28.207Z,17.03
2022-09-13T19:24:57.199Z,17.55
2022-09-13T19:27:26.268Z,17.55
2022-09-13T19:29:55.235Z,17.19
2022-09-13T19:32:24.192Z,17.31
2022-09-13T19:34:53.229Z,17.31
2022-09-13T19:37:22.284Z,17.24
2022-09-13T19:39:51.460Z,17.24
2022-09-13T19:42:20.382Z,17.17
2022-09-13T19:44:49.386Z,17.07
2022-09-13T19:49:49.907Z,17.00
2022-09-13T19:52:19.109Z,17.09
2022-09-13T19:54:48.372Z,17.00
2022-09-13T19:57:17.407Z,17.00
2022-09-13T19:59:46.437Z,16.65
2022-09-13T20:02:15.673Z,16.65
2022-09-13T20:04:45.501Z,16.69
2022-09-13T20:07:14.705Z,16.71
2022-09-13T20:09:45.360Z,16.70
2022-09-13T20:12:15.162Z,16.79
2022-09-13T20:14:44.160Z,16.98
2022-09-13T20:17:13.110Z,16.86
2022-09-13T20:19:47.679Z,16.86
2022-09-13T20:22:12.977Z,16.75
2022-09-13T20:24:42.016Z,16.75
2022-09-13T20:27:11.036Z,16.76
2022-09-13T20:29:40.609Z,16.78
2022-09-13T20:32:09.778Z,16.78
2022-09-13T20:34:39.611Z,16.77
2022-09-13T20:37:08.620Z,16.69
2022-09-13T20:39:37.615Z,16.70
2022-09-13T20:42:07.082Z,16.49
2022-09-13T20:44:36.061Z,16.71
2022-09-13T20:47:05.494Z,16.84
2022-09-13T20:49:34.446Z,16.73
2022-09-13T20:52:03.724Z,16.88
2022-09-13T20:54:32.757Z,16.88
2022-09-13T20:57:01.696Z,16.96
2022-09-13T20:59:30.673Z,16.74
2022-09-13T21:01:59.800Z,16.92
2022-09-13T21:04:28.881Z,16.90
2022-09-13T21:07:16.103Z,16.92
2022-09-13T21:09:45.501Z,17.07
2022-09-13T21:12:15.784Z,17.03
2022-09-13T21:14:46.535Z,16.97
2022-09-13T21:17:15.625Z,16.97
2022-09-13T21:19:44.717Z,16.90
2022-09-13T21:22:13.891Z,16.98
2022-09-13T21:24:42.902Z,16.88
2022-09-13T21:27:12.163Z,17.02
2022-09-13T21:29:41.215Z,17.17
2022-09-13T21:32:10.646Z,16.71
2022-09-13T21:34:39.653Z,16.75
2022-09-13T21:37:08.640Z,16.65
2022-09-13T21:39:38.022Z,16.65
2022-09-13T21:42:07.442Z,16.67
2022-09-13T21:44:36.518Z,16.62
2022-09-13T21:47:05.457Z,16.74
2022-09-13T21:49:34.535Z,16.74
2022-09-13T21:52:04.002Z,16.67
2022-09-13T21:54:32.949Z,16.63
2022-09-13T21:57:02.001Z,16.65
2022-09-13T21:59:31.231Z,16.69
2022-09-13T22:02:01.140Z,16.64
2022-09-13T22:04:30.207Z,16.64
2022-09-13T22:06:59.281Z,16.69
2022-09-13T22:09:29.013Z,17.00
2022-09-13T22:11:59.475Z,16.59
2022-09-13T22:14:28.574Z,17.02
2022-09-13T22:16:57.679Z,16.73
2022-09-13T22:19:28.358Z,16.90
2022-09-13T22:21:59.730Z,16.86
2022-09-13T22:24:32.928Z,16.86
2022-09-13T22:27:02.281Z,16.89
2022-09-13T22:29:31.302Z,16.59
2022-09-13T22:32:00.393Z,16.75
2022-09-13T22:34:31.120Z,16.79
2022-09-13T22:37:00.371Z,16.66
2022-09-13T22:39:29.496Z,16.64
2022-09-13T22:41:58.447Z,16.64
2022-09-13T22:44:27.692Z,16.53
2022-09-13T22:46:58.339Z,16.74
2022-09-13T22:49:27.372Z,16.86
2022-09-13T22:51:56.332Z,16.78
2022-09-13T22:54:25.305Z,16.68
2022-09-13T22:56:54.327Z,16.66
2022-09-13T22:59:23.799Z,16.66
2022-09-13T23:01:53.333Z,16.57
2022-09-13T23:04:22.488Z,16.58
2022-09-13T23:06:51.460Z,16.60
2022-09-13T23:09:20.676Z,16.65
2022-09-13T23:11:49.624Z,16.50
2022-09-13T23:14:20.270Z,16.50
2022-09-13T23:16:51.913Z,16.30
2022-09-13T23:19:23.425Z,16.53
2022-09-13T23:21:54.081Z,16.45
2022-09-13T23:24:24.434Z,16.38
2022-09-13T23:26:56.736Z,16.38
2022-09-13T23:29:25.958Z,16.38
2022-09-13T23:31:55.928Z,16.54
2022-09-13T23:34:25.417Z,16.42
2022-09-13T23:36:55.194Z,16.42
2022-09-13T23:39:24.621Z,16.55
2022-09-13T23:41:53.947Z,16.32
2022-09-13T23:44:22.912Z,16.27
2022-09-13T23:46:52.647Z,16.59
2022-09-13T23:49:22.030Z,16.44
2022-09-13T23:51:51.428Z,16.44
2022-09-13T23:54:20.570Z,16.44
2022-09-13T23:56:49.615Z,16.33
2022-09-13T23:59:18.783Z,16.30
